sensor_id;sensor_type;location;lat;lon;timestamp;temperature;humidity
65419;DHT22;52027;50.658;14.004;2023-02-12T00:01:51;21.10;30.43
65419;DHT22;52027;50.658;14.004;2023-02-12T00:04:17;21.08;30.43
65419;DHT22;52027;50.658;14.004;2023-02-12T00:06:42;21.10;30.41
65419;DHT22;52027;50.658;14.004;2023-02-12T00:09:07;21.10;30.48
65419;DHT22;52027;50.658;14.004;2023-02-12T00:11:33;21.10;30.40
65419;DHT22;52027;50.658;14.004;2023-02-12T00:14:01;21.08;30.48
65419;DHT22;52027;50.658;14.004;2023-02-12T00:16:27;21.07;30.45
65419;DHT22;52027;50.658;14.004;2023-02-12T00:18:55;21.07;30.45
65419;DHT22;52027;50.658;14.004;2023-02-12T00:21:21;21.11;30.50
65419;DHT22;52027;50.658;14.004;2023-02-12T00:23:47;21.10;30.46
65419;DHT22;52027;50.658;14.004;2023-02-12T00:26:17;21.08;30.45
65419;DHT22;52027;50.658;14.004;2023-02-12T00:28:43;21.11;30.40
65419;DHT22;52027;50.658;14.004;2023-02-12T00:31:11;21.11;30.45
65419;DHT22;52027;50.658;14.004;2023-02-12T00:33:38;21.12;30.45
65419;DHT22;52027;50.658;14.004;2023-02-12T00:36:04;21.11;30.46
65419;DHT22;52027;50.658;14.004;2023-02-12T00:38:29;21.12;30.42
65419;DHT22;52027;50.658;14.004;2023-02-12T00:40:55;21.14;30.39
65419;DHT22;52027;50.658;14.004;2023-02-12T00:43:20;21.15;30.42
65419;DHT22;52027;50.658;14.004;2023-02-12T00:45:46;21.14;30.47
65419;DHT22;52027;50.658;14.004;2023-02-12T00:48:12;21.14;30.39
65419;DHT22;52027;50.658;14.004;2023-02-12T00:50:37;21.15;30.42
65419;DHT22;52027;50.658;14.004;2023-02-12T00:53:06;21.14;30.39
65419;DHT22;52027;50.658;14.004;2023-02-12T00:55:31;21.17;30.37
65419;DHT22;52027;50.658;14.004;2023-02-12T00:57:57;21.15;30.39
65419;DHT22;52027;50.658;14.004;2023-02-12T01:00:23;21.15;30.42
65419;DHT22;52027;50.658;14.004;2023-02-12T01:02:48;21.17;30.44
65419;DHT22;52027;50.658;14.004;2023-02-12T01:05:13;21.20;30.39
65419;DHT22;52027;50.658;14.004;2023-02-12T01:07:39;21.18;30.42
65419;DHT22;52027;50.658;14.004;2023-02-12T01:10:06;21.20;30.41
65419;DHT22;52027;50.658;14.004;2023-02-12T01:12:31;21.20;30.44
65419;DHT22;52027;50.658;14.004;2023-02-12T01:14:57;21.18;30.37
65419;DHT22;52027;50.658;14.004;2023-02-12T01:17:22;21.17;30.45
65419;DHT22;52027;50.658;14.004;2023-02-12T01:19:47;21.21;30.41
65419;DHT22;52027;50.658;14.004;2023-02-12T01:22:13;21.21;30.33
65419;DHT22;52027;50.658;14.004;2023-02-12T01:24:38;21.21;30.35
65419;DHT22;52027;50.658;14.004;2023-02-12T01:27:04;21.24;30.36
65419;DHT22;52027;50.658;14.004;2023-02-12T01:29:29;21.21;30.40
65419;DHT22;52027;50.658;14.004;2023-02-12T01:31:54;21.23;30.33
65419;DHT22;52027;50.658;14.004;2023-02-12T01:34:21;21.23;30.36
65419;DHT22;52027;50.658;14.004;2023-02-12T01:36:46;21.24;30.36
65419;DHT22;52027;50.658;14.004;2023-02-12T01:39:11;21.25;30.35
65419;DHT22;52027;50.658;14.004;2023-02-12T01:41:40;21.23;30.31
65419;DHT22;52027;50.658;14.004;2023-02-12T01:44:16;21.23;30.35
65419;DHT22;52027;50.658;14.004;2023-02-12T01:46:44;21.24;30.36
65419;DHT22;52027;50.658;14.004;2023-02-12T01:49:21;21.24;30.40
65419;DHT22;52027;50.658;14.004;2023-02-12T01:51:50;21.23;30.35
65419;DHT22;52027;50.658;14.004;2023-02-12T01:54:18;21.27;30.36
65419;DHT22;52027;50.658;14.004;2023-02-12T01:56:45;21.25;30.33
65419;DHT22;52027;50.658;14.004;2023-02-12T01:59:11;21.27;30.34
65419;DHT22;52027;50.658;14.004;2023-02-12T02:01:37;21.28;30.34
65419;DHT22;52027;50.658;14.004;2023-02-12T02:04:07;21.25;30.34
65419;DHT22;52027;50.658;14.004;2023-02-12T02:06:39;21.27;30.35
65419;DHT22;52027;50.658;14.004;2023-02-12T02:09:06;21.27;30.30
65419;DHT22;52027;50.658;14.004;2023-02-12T02:11:32;21.25;30.32
65419;DHT22;52027;50.658;14.004;2023-02-12T02:14:16;21.28;30.34
65419;DHT22;52027;50.658;14.004;2023-02-12T02:22:29;21.27;30.29
65419;DHT22;52027;50.658;14.004;2023-02-12T02:32:34;21.28;30.35
65419;DHT22;52027;50.658;14.004;2023-02-12T02:38:06;21.27;30.32
65419;DHT22;52027;50.658;14.004;2023-02-12T02:40:48;21.30;30.31
65419;DHT22;52027;50.658;14.004;2023-02-12T02:43:18;21.30;30.34
65419;DHT22;52027;50.658;14.004;2023-02-12T02:45:47;21.30;30.29
65419;DHT22;52027;50.658;14.004;2023-02-12T02:48:26;21.32;30.32
65419;DHT22;52027;50.658;14.004;2023-02-12T02:51:04;21.31;30.26
65419;DHT22;52027;50.658;14.004;2023-02-12T02:53:36;21.32;30.26
65419;DHT22;52027;50.658;14.004;2023-02-12T02:56:05;21.31;30.31
65419;DHT22;52027;50.658;14.004;2023-02-12T02:58:36;21.31;30.24
65419;DHT22;52027;50.658;14.004;2023-02-12T03:04:05;21.31;30.31
65419;DHT22;52027;50.658;14.004;2023-02-12T03:06:37;21.31;30.31
65419;DHT22;52027;50.658;14.004;2023-02-12T03:09:26;21.34;30.32
65419;DHT22;52027;50.658;14.004;2023-02-12T03:11:57;21.31;30.32
65419;DHT22;52027;50.658;14.004;2023-02-12T03:14:31;21.31;30.28
65419;DHT22;52027;50.658;14.004;2023-02-12T03:17:23;21.34;30.31
65419;DHT22;52027;50.658;14.004;2023-02-12T03:20:03;21.32;30.29
65419;DHT22;52027;50.658;14.004;2023-02-12T03:22:33;21.31;30.31
65419;DHT22;52027;50.658;14.004;2023-02-12T03:25:08;21.35;30.28
65419;DHT22;52027;50.658;14.004;2023-02-12T03:27:43;21.32;30.31
65419;DHT22;52027;50.658;14.004;2023-02-12T03:30:10;21.32;30.28
65419;DHT22;52027;50.658;14.004;2023-02-12T03:32:58;21.32;30.31
65419;DHT22;52027;50.658;14.004;2023-02-12T03:35:49;21.37;30.29
65419;DHT22;52027;50.658;14.004;2023-02-12T03:43:53;21.38;30.29
65419;DHT22;52027;50.658;14.004;2023-02-12T03:46:26;21.35;30.32
65419;DHT22;52027;50.658;14.004;2023-02-12T03:51:33;21.32;30.32
65419;DHT22;52027;50.658;14.004;2023-02-12T03:54:00;21.35;30.30
65419;DHT22;52027;50.658;14.004;2023-02-12T03:57:00;21.34;30.32
65419;DHT22;52027;50.658;14.004;2023-02-12T03:59:27;21.37;30.29
65419;DHT22;52027;50.658;14.004;2023-02-12T04:01:55;21.35;30.31
65419;DHT22;52027;50.658;14.004;2023-02-12T04:04:22;21.35;30.34
65419;DHT22;52027;50.658;14.004;2023-02-12T04:06:48;21.37;30.33
65419;DHT22;52027;50.658;14.004;2023-02-12T04:09:14;21.35;30.34
65419;DHT22;52027;50.658;14.004;2023-02-12T04:23:02;21.34;30.34
65419;DHT22;52027;50.658;14.004;2023-02-12T04:28:44;21.34;30.29
65419;DHT22;52027;50.658;14.004;2023-02-12T04:31:35;21.32;30.39
65419;DHT22;52027;50.658;14.004;2023-02-12T04:34:20;21.35;30.34
65419;DHT22;52027;50.658;14.004;2023-02-12T04:36:58;21.35;30.32
65419;DHT22;52027;50.658;14.004;2023-02-12T04:39:29;21.35;30.39
65419;DHT22;52027;50.658;14.004;2023-02-12T04:41:59;21.31;30.37
65419;DHT22;52027;50.658;14.004;2023-02-12T04:44:27;21.31;30.38
65419;DHT22;52027;50.658;14.004;2023-02-12T04:46:53;21.31;30.31
65419;DHT22;52027;50.658;14.004;2023-02-12T04:49:20;21.30;30.39
65419;DHT22;52027;50.658;14.004;2023-02-12T04:51:46;21.32;30.35
65419;DHT22;52027;50.658;14.004;2023-02-12T04:54:13;21.31;30.35
65419;DHT22;52027;50.658;14.004;2023-02-12T04:56:38;21.32;30.34
65419;DHT22;52027;50.658;14.004;2023-02-12T04:59:04;21.31;30.37
65419;DHT22;52027;50.658;14.004;2023-02-12T05:01:30;21.31;30.39
65419;DHT22;52027;50.658;14.004;2023-02-12T05:03:57;21.31;30.40
65419;DHT22;52027;50.658;14.004;2023-02-12T05:06:22;21.31;30.35
65419;DHT22;52027;50.658;14.004;2023-02-12T05:08:47;21.31;30.39
65419;DHT22;52027;50.658;14.004;2023-02-12T05:11:13;21.31;30.38
65419;DHT22;52027;50.658;14.004;2023-02-12T05:13:38;21.28;30.38
65419;DHT22;52027;50.658;14.004;2023-02-12T05:16:05;21.28;30.42
65419;DHT22;52027;50.658;14.004;2023-02-12T05:18:31;21.28;30.38
65419;DHT22;52027;50.658;14.004;2023-02-12T05:20:58;21.28;30.43
65419;DHT22;52027;50.658;14.004;2023-02-12T05:23:28;21.27;30.45
65419;DHT22;52027;50.658;14.004;2023-02-12T05:25:54;21.28;30.48
65419;DHT22;52027;50.658;14.004;2023-02-12T05:28:21;21.27;30.45
65419;DHT22;52027;50.658;14.004;2023-02-12T05:30:47;21.28;30.45
65419;DHT22;52027;50.658;14.004;2023-02-12T05:33:12;21.28;30.45
65419;DHT22;52027;50.658;14.004;2023-02-12T05:35:38;21.25;30.46
65419;DHT22;52027;50.658;14.004;2023-02-12T05:38:03;21.25;30.46
65419;DHT22;52027;50.658;14.004;2023-02-12T05:40:28;21.23;30.51
65419;DHT22;52027;50.658;14.004;2023-02-12T05:42:54;21.23;30.50
65419;DHT22;52027;50.658;14.004;2023-02-12T05:45:19;21.23;30.50
65419;DHT22;52027;50.658;14.004;2023-02-12T05:47:44;21.24;30.52
65419;DHT22;52027;50.658;14.004;2023-02-12T05:50:10;21.23;30.49
65419;DHT22;52027;50.658;14.004;2023-02-12T05:52:35;21.21;30.50
65419;DHT22;52027;50.658;14.004;2023-02-12T05:55:00;21.21;30.55
65419;DHT22;52027;50.658;14.004;2023-02-12T05:57:26;21.21;30.53
65419;DHT22;52027;50.658;14.004;2023-02-12T05:59:51;21.20;30.57
65419;DHT22;52027;50.658;14.004;2023-02-12T06:02:17;21.21;30.55
65419;DHT22;52027;50.658;14.004;2023-02-12T06:04:42;21.18;30.58
65419;DHT22;52027;50.658;14.004;2023-02-12T06:07:07;21.21;30.55
65419;DHT22;52027;50.658;14.004;2023-02-12T06:09:33;21.18;30.55
65419;DHT22;52027;50.658;14.004;2023-02-12T06:11:59;21.18;30.58
65419;DHT22;52027;50.658;14.004;2023-02-12T06:14:24;21.18;30.61
65419;DHT22;52027;50.658;14.004;2023-02-12T06:16:50;21.18;30.58
65419;DHT22;52027;50.658;14.004;2023-02-12T06:19:17;21.17;30.58
65419;DHT22;52027;50.658;14.004;2023-02-12T06:21:42;21.18;30.56
65419;DHT22;52027;50.658;14.004;2023-02-12T06:24:11;21.15;30.59
65419;DHT22;52027;50.658;14.004;2023-02-12T06:26:36;21.15;30.58
65419;DHT22;52027;50.658;14.004;2023-02-12T06:29:01;21.18;30.63
65419;DHT22;52027;50.658;14.004;2023-02-12T06:31:29;21.17;30.67
65419;DHT22;52027;50.658;14.004;2023-02-12T06:33:57;21.15;30.61
65419;DHT22;52027;50.658;14.004;2023-02-12T06:36:23;21.15;30.62
65419;DHT22;52027;50.658;14.004;2023-02-12T06:38:49;21.14;30.66
65419;DHT22;52027;50.658;14.004;2023-02-12T06:41:15;21.14;30.64
65419;DHT22;52027;50.658;14.004;2023-02-12T06:43:40;21.15;30.62
65419;DHT22;52027;50.658;14.004;2023-02-12T06:46:06;21.12;30.62
65419;DHT22;52027;50.658;14.004;2023-02-12T06:48:32;21.14;30.62
65419;DHT22;52027;50.658;14.004;2023-02-12T06:51:05;21.14;30.65
65419;DHT22;52027;50.658;14.004;2023-02-12T06:53:32;21.14;30.62
65419;DHT22;52027;50.658;14.004;2023-02-12T06:56:03;21.12;30.67
65419;DHT22;52027;50.658;14.004;2023-02-12T06:58:29;21.12;30.67
65419;DHT22;52027;50.658;14.004;2023-02-12T07:00:54;21.14;30.69
65419;DHT22;52027;50.658;14.004;2023-02-12T07:03:20;21.12;30.67
65419;DHT22;52027;50.658;14.004;2023-02-12T07:05:45;21.12;30.67
65419;DHT22;52027;50.658;14.004;2023-02-12T07:08:12;21.12;30.66
65419;DHT22;52027;50.658;14.004;2023-02-12T07:10:38;21.12;30.67
65419;DHT22;52027;50.658;14.004;2023-02-12T07:13:04;21.12;30.65
65419;DHT22;52027;50.658;14.004;2023-02-12T07:15:29;21.11;30.70
65419;DHT22;52027;50.658;14.004;2023-02-12T07:17:54;21.10;30.72
65419;DHT22;52027;50.658;14.004;2023-02-12T07:20:20;21.10;30.67
65419;DHT22;52027;50.658;14.004;2023-02-12T07:22:45;21.12;30.72
65419;DHT22;52027;50.658;14.004;2023-02-12T07:25:11;21.11;30.73
65419;DHT22;52027;50.658;14.004;2023-02-12T07:27:36;21.08;30.72
65419;DHT22;52027;50.658;14.004;2023-02-12T07:30:03;21.10;30.70
65419;DHT22;52027;50.658;14.004;2023-02-12T07:32:31;21.10;30.73
65419;DHT22;52027;50.658;14.004;2023-02-12T07:34:56;21.10;30.74
65419;DHT22;52027;50.658;14.004;2023-02-12T07:37:22;21.12;30.73
65419;DHT22;52027;50.658;14.004;2023-02-12T07:39:48;21.11;30.70
65419;DHT22;52027;50.658;14.004;2023-02-12T07:42:13;21.11;30.70
65419;DHT22;52027;50.658;14.004;2023-02-12T07:44:39;21.08;30.76
65419;DHT22;52027;50.658;14.004;2023-02-12T07:47:04;21.11;30.72
65419;DHT22;52027;50.658;14.004;2023-02-12T07:49:30;21.12;30.73
65419;DHT22;52027;50.658;14.004;2023-02-12T07:51:55;21.12;30.67
65419;DHT22;52027;50.658;14.004;2023-02-12T07:54:21;21.11;30.70
65419;DHT22;52027;50.658;14.004;2023-02-12T07:56:46;21.11;30.70
65419;DHT22;52027;50.658;14.004;2023-02-12T07:59:14;21.11;30.78
65419;DHT22;52027;50.658;14.004;2023-02-12T08:01:46;21.10;30.74
65419;DHT22;52027;50.658;14.004;2023-02-12T08:04:14;21.10;30.70
65419;DHT22;52027;50.658;14.004;2023-02-12T08:06:45;21.08;30.73
65419;DHT22;52027;50.658;14.004;2023-02-12T08:09:13;21.11;30.72
65419;DHT22;52027;50.658;14.004;2023-02-12T08:11:40;21.11;30.68
65419;DHT22;52027;50.658;14.004;2023-02-12T08:14:06;21.12;30.68
65419;DHT22;52027;50.658;14.004;2023-02-12T08:16:36;21.10;30.65
65419;DHT22;52027;50.658;14.004;2023-02-12T08:19:01;21.12;30.73
65419;DHT22;52027;50.658;14.004;2023-02-12T08:21:27;21.12;30.69
65419;DHT22;52027;50.658;14.004;2023-02-12T08:23:54;21.12;30.70
65419;DHT22;52027;50.658;14.004;2023-02-12T08:26:26;21.12;30.66
65419;DHT22;52027;50.658;14.004;2023-02-12T08:29:01;21.12;30.66
65419;DHT22;52027;50.658;14.004;2023-02-12T08:31:29;21.12;30.70
65419;DHT22;52027;50.658;14.004;2023-02-12T08:33:55;21.14;30.72
65419;DHT22;52027;50.658;14.004;2023-02-12T08:36:24;21.14;30.75
65419;DHT22;52027;50.658;14.004;2023-02-12T08:38:50;21.14;30.67
65419;DHT22;52027;50.658;14.004;2023-02-12T08:41:20;21.14;30.67
65419;DHT22;52027;50.658;14.004;2023-02-12T08:43:47;21.14;30.64
65419;DHT22;52027;50.658;14.004;2023-02-12T08:46:18;21.14;30.64
65419;DHT22;52027;50.658;14.004;2023-02-12T08:48:44;21.15;30.69
65419;DHT22;52027;50.658;14.004;2023-02-12T08:51:15;21.15;30.67
65419;DHT22;52027;50.658;14.004;2023-02-12T08:53:43;21.15;30.64
65419;DHT22;52027;50.658;14.004;2023-02-12T08:56:10;21.17;30.72
65419;DHT22;52027;50.658;14.004;2023-02-12T08:58:36;21.18;30.69
65419;DHT22;52027;50.658;14.004;2023-02-12T09:01:03;21.17;30.70
65419;DHT22;52027;50.658;14.004;2023-02-12T09:03:29;21.18;30.66
65419;DHT22;52027;50.658;14.004;2023-02-12T09:05:54;21.18;30.64
65419;DHT22;52027;50.658;14.004;2023-02-12T09:08:20;21.18;30.72
65419;DHT22;52027;50.658;14.004;2023-02-12T09:10:45;21.18;30.64
65419;DHT22;52027;50.658;14.004;2023-02-12T09:13:12;21.18;30.61
65419;DHT22;52027;50.658;14.004;2023-02-12T09:15:40;21.21;30.61
65419;DHT22;52027;50.658;14.004;2023-02-12T09:18:05;21.18;30.64
65419;DHT22;52027;50.658;14.004;2023-02-12T09:20:31;21.21;30.57
65419;DHT22;52027;50.658;14.004;2023-02-12T09:22:58;21.21;30.63
65419;DHT22;52027;50.658;14.004;2023-02-12T09:25:24;21.23;30.60
65419;DHT22;52027;50.658;14.004;2023-02-12T09:27:49;21.21;30.53
65419;DHT22;52027;50.658;14.004;2023-02-12T09:30:15;21.23;30.60
65419;DHT22;52027;50.658;14.004;2023-02-12T09:32:40;21.24;30.60
65419;DHT22;52027;50.658;14.004;2023-02-12T09:35:06;21.24;30.62
65419;DHT22;52027;50.658;14.004;2023-02-12T09:37:31;21.24;30.63
65419;DHT22;52027;50.658;14.004;2023-02-12T09:39:57;21.23;30.58
65419;DHT22;52027;50.658;14.004;2023-02-12T09:45:19;21.25;30.54
65419;DHT22;52027;50.658;14.004;2023-02-12T09:48:03;21.21;30.60
65419;DHT22;52027;50.658;14.004;2023-02-12T09:50:38;21.24;30.60
65419;DHT22;52027;50.658;14.004;2023-02-12T09:53:11;21.24;30.58
65419;DHT22;52027;50.658;14.004;2023-02-12T09:55:38;21.28;30.58
65419;DHT22;52027;50.658;14.004;2023-02-12T09:58:11;21.25;30.57
65419;DHT22;52027;50.658;14.004;2023-02-12T10:00:38;21.25;30.58
65419;DHT22;52027;50.658;14.004;2023-02-12T10:03:11;21.27;30.56
65419;DHT22;52027;50.658;14.004;2023-02-12T10:05:43;21.25;30.58
65419;DHT22;52027;50.658;14.004;2023-02-12T10:10:56;21.28;30.57
65419;DHT22;52027;50.658;14.004;2023-02-12T10:13:38;21.28;30.62
65419;DHT22;52027;50.658;14.004;2023-02-12T10:22:12;21.30;30.54
65419;DHT22;52027;50.658;14.004;2023-02-12T10:24:52;21.24;30.57
65419;DHT22;52027;50.658;14.004;2023-02-12T10:27:35;21.25;30.60
65419;DHT22;52027;50.658;14.004;2023-02-12T10:30:12;21.27;30.62
65419;DHT22;52027;50.658;14.004;2023-02-12T10:32:39;21.27;30.60
65419;DHT22;52027;50.658;14.004;2023-02-12T10:35:13;21.27;30.62
65419;DHT22;52027;50.658;14.004;2023-02-12T10:38:02;21.28;30.59
65419;DHT22;52027;50.658;14.004;2023-02-12T10:40:30;21.28;30.58
65419;DHT22;52027;50.658;14.004;2023-02-12T10:42:59;21.30;30.64
65419;DHT22;52027;50.658;14.004;2023-02-12T10:45:29;21.30;30.58
65419;DHT22;52027;50.658;14.004;2023-02-12T10:48:19;21.31;30.54
65419;DHT22;52027;50.658;14.004;2023-02-12T10:53:41;21.32;30.56
65419;DHT22;52027;50.658;14.004;2023-02-12T10:58:39;21.32;30.48
65419;DHT22;52027;50.658;14.004;2023-02-12T11:01:14;21.34;30.51
65419;DHT22;52027;50.658;14.004;2023-02-12T11:03:40;21.32;30.50
65419;DHT22;52027;50.658;14.004;2023-02-12T11:06:16;21.35;30.52
65419;DHT22;52027;50.658;14.004;2023-02-12T11:08:43;21.34;30.48
65419;DHT22;52027;50.658;14.004;2023-02-12T11:13:38;21.35;30.48
65419;DHT22;52027;50.658;14.004;2023-02-12T11:16:04;21.38;30.45
65419;DHT22;52027;50.658;14.004;2023-02-12T11:18:31;21.37;30.50
65419;DHT22;52027;50.658;14.004;2023-02-12T11:21:04;21.38;30.45
65419;DHT22;52027;50.658;14.004;2023-02-12T11:23:48;21.39;30.48
65419;DHT22;52027;50.658;14.004;2023-02-12T11:28:55;21.38;30.50
65419;DHT22;52027;50.658;14.004;2023-02-12T11:34:16;21.39;30.49
65419;DHT22;52027;50.658;14.004;2023-02-12T11:36:49;21.38;30.47
65419;DHT22;52027;50.658;14.004;2023-02-12T11:39:31;21.39;30.47
65419;DHT22;52027;50.658;14.004;2023-02-12T11:42:16;21.37;30.46
65419;DHT22;52027;50.658;14.004;2023-02-12T11:44:47;21.38;30.49
65419;DHT22;52027;50.658;14.004;2023-02-12T11:47:32;21.39;30.52
65419;DHT22;52027;50.658;14.004;2023-02-12T11:50:07;21.38;30.49
65419;DHT22;52027;50.658;14.004;2023-02-12T11:52:39;21.38;30.46
65419;DHT22;52027;50.658;14.004;2023-02-12T11:55:17;21.41;30.49
65419;DHT22;52027;50.658;14.004;2023-02-12T11:57:50;21.41;30.50
65419;DHT22;52027;50.658;14.004;2023-02-12T12:00:37;21.41;30.47
65419;DHT22;52027;50.658;14.004;2023-02-12T12:03:17;21.39;30.46
65419;DHT22;52027;50.658;14.004;2023-02-12T12:05:50;21.41;30.47
65419;DHT22;52027;50.658;14.004;2023-02-12T12:08:37;21.37;30.55
65419;DHT22;52027;50.658;14.004;2023-02-12T12:11:12;21.41;30.55
65419;DHT22;52027;50.658;14.004;2023-02-12T12:13:48;21.38;30.49
65419;DHT22;52027;50.658;14.004;2023-02-12T12:16:38;21.39;30.49
65419;DHT22;52027;50.658;14.004;2023-02-12T12:19:34;21.39;30.52
65419;DHT22;52027;50.658;14.004;2023-02-12T12:25:21;21.38;30.50
65419;DHT22;52027;50.658;14.004;2023-02-12T12:33:16;21.39;30.52
65419;DHT22;52027;50.658;14.004;2023-02-12T12:38:40;21.38;30.53
65419;DHT22;52027;50.658;14.004;2023-02-12T12:44:16;21.38;30.52
65419;DHT22;52027;50.658;14.004;2023-02-12T12:47:17;21.37;30.56
65419;DHT22;52027;50.658;14.004;2023-02-12T12:49:55;21.38;30.50
65419;DHT22;52027;50.658;14.004;2023-02-12T12:55:34;21.37;30.59
65419;DHT22;52027;50.658;14.004;2023-02-12T12:58:22;21.34;30.58
65419;DHT22;52027;50.658;14.004;2023-02-12T13:11:35;21.35;30.56
65419;DHT22;52027;50.658;14.004;2023-02-12T13:14:16;21.35;30.56
65419;DHT22;52027;50.658;14.004;2023-02-12T13:16:55;21.37;30.55
65419;DHT22;52027;50.658;14.004;2023-02-12T13:19:43;21.38;30.56
65419;DHT22;52027;50.658;14.004;2023-02-12T13:25:06;21.39;30.57
65419;DHT22;52027;50.658;14.004;2023-02-12T13:27:40;21.38;30.50
65419;DHT22;52027;50.658;14.004;2023-02-12T13:32:42;21.38;30.52
65419;DHT22;52027;50.658;14.004;2023-02-12T13:35:18;21.39;30.52
65419;DHT22;52027;50.658;14.004;2023-02-12T13:37:46;21.39;30.55
65419;DHT22;52027;50.658;14.004;2023-02-12T13:40:56;21.39;30.52
65419;DHT22;52027;50.658;14.004;2023-02-12T13:54:12;21.39;30.57
65419;DHT22;52027;50.658;14.004;2023-02-12T13:56:54;21.41;30.52
65419;DHT22;52027;50.658;14.004;2023-02-12T13:59:41;21.39;30.53
65419;DHT22;52027;50.658;14.004;2023-02-12T14:04:58;21.39;30.58
65419;DHT22;52027;50.658;14.004;2023-02-12T14:07:42;21.38;30.58
65419;DHT22;52027;50.658;14.004;2023-02-12T14:10:21;21.38;30.55
65419;DHT22;52027;50.658;14.004;2023-02-12T14:12:47;21.39;30.59
65419;DHT22;52027;50.658;14.004;2023-02-12T14:15:29;21.38;30.58
65419;DHT22;52027;50.658;14.004;2023-02-12T14:18:21;21.35;30.60
65419;DHT22;52027;50.658;14.004;2023-02-12T14:20:47;21.37;30.60
65419;DHT22;52027;50.658;14.004;2023-02-12T14:26:14;21.35;30.60
65419;DHT22;52027;50.658;14.004;2023-02-12T14:33:48;21.38;30.61
65419;DHT22;52027;50.658;14.004;2023-02-12T14:49:21;21.32;30.64
65419;DHT22;52027;50.658;14.004;2023-02-12T14:51:57;21.35;30.64
65419;DHT22;52027;50.658;14.004;2023-02-12T14:54:31;21.34;30.65
65419;DHT22;52027;50.658;14.004;2023-02-12T14:57:02;21.34;30.67
65419;DHT22;52027;50.658;14.004;2023-02-12T14:59:32;21.31;30.64
65419;DHT22;52027;50.658;14.004;2023-02-12T15:02:03;21.31;30.70
65419;DHT22;52027;50.658;14.004;2023-02-12T15:04:32;21.31;30.67
65419;DHT22;52027;50.658;14.004;2023-02-12T15:09:39;21.30;30.65
65419;DHT22;52027;50.658;14.004;2023-02-12T15:12:13;21.31;30.67
65419;DHT22;52027;50.658;14.004;2023-02-12T15:14:44;21.27;30.70
65419;DHT22;52027;50.658;14.004;2023-02-12T15:17:25;21.28;30.71
65419;DHT22;52027;50.658;14.004;2023-02-12T15:20:00;21.30;30.70
65419;DHT22;52027;50.658;14.004;2023-02-12T15:22:32;21.27;30.68
65419;DHT22;52027;50.658;14.004;2023-02-12T15:25:30;21.30;30.73
65419;DHT22;52027;50.658;14.004;2023-02-12T15:27:58;21.30;30.70
65419;DHT22;52027;50.658;14.004;2023-02-12T15:30:28;21.31;30.76
65419;DHT22;52027;50.658;14.004;2023-02-12T15:32:59;21.28;30.71
65419;DHT22;52027;50.658;14.004;2023-02-12T15:35:28;21.28;30.73
65419;DHT22;52027;50.658;14.004;2023-02-12T15:37:54;21.25;30.70
65419;DHT22;52027;50.658;14.004;2023-02-12T15:40:21;21.27;30.80
65419;DHT22;52027;50.658;14.004;2023-02-12T15:42:56;21.27;30.78
65419;DHT22;52027;50.658;14.004;2023-02-12T15:45:31;21.25;30.78
65419;DHT22;52027;50.658;14.004;2023-02-12T15:48:10;21.27;30.76
65419;DHT22;52027;50.658;14.004;2023-02-12T15:53:38;21.23;30.78
65419;DHT22;52027;50.658;14.004;2023-02-12T15:56:04;21.21;30.83
65419;DHT22;52027;50.658;14.004;2023-02-12T15:58:32;21.21;30.90
65419;DHT22;52027;50.658;14.004;2023-02-12T16:01:04;21.21;30.85
65419;DHT22;52027;50.658;14.004;2023-02-12T16:03:33;21.20;30.82
65419;DHT22;52027;50.658;14.004;2023-02-12T16:06:12;21.15;30.88
65419;DHT22;52027;50.658;14.004;2023-02-12T16:08:46;21.18;30.86
65419;DHT22;52027;50.658;14.004;2023-02-12T16:11:13;21.21;30.83
65419;DHT22;52027;50.658;14.004;2023-02-12T16:13:51;21.18;30.86
65419;DHT22;52027;50.658;14.004;2023-02-12T16:16:26;21.17;30.86
65419;DHT22;52027;50.658;14.004;2023-02-12T16:21:33;21.17;30.89
65419;DHT22;52027;50.658;14.004;2023-02-12T16:23:59;21.15;30.92
65419;DHT22;52027;50.658;14.004;2023-02-12T16:26:25;21.15;30.86
65419;DHT22;52027;50.658;14.004;2023-02-12T16:28:53;21.17;30.94
65419;DHT22;52027;50.658;14.004;2023-02-12T16:31:19;21.17;30.92
65419;DHT22;52027;50.658;14.004;2023-02-12T16:33:50;21.15;30.93
65419;DHT22;52027;50.658;14.004;2023-02-12T16:43:47;21.15;30.96
65419;DHT22;52027;50.658;14.004;2023-02-12T16:46:15;21.17;30.94
65419;DHT22;52027;50.658;14.004;2023-02-12T16:48:44;21.17;30.97
65419;DHT22;52027;50.658;14.004;2023-02-12T16:51:34;21.18;30.96
65419;DHT22;52027;50.658;14.004;2023-02-12T16:54:02;21.17;30.91
65419;DHT22;52027;50.658;14.004;2023-02-12T16:56:35;21.14;30.93
65419;DHT22;52027;50.658;14.004;2023-02-12T16:59:03;21.17;30.96
65419;DHT22;52027;50.658;14.004;2023-02-12T17:01:35;21.20;30.96
65419;DHT22;52027;50.658;14.004;2023-02-12T17:04:04;21.20;30.91
65419;DHT22;52027;50.658;14.004;2023-02-12T17:06:31;21.20;30.94
65419;DHT22;52027;50.658;14.004;2023-02-12T17:08:57;21.18;30.91
65419;DHT22;52027;50.658;14.004;2023-02-12T17:11:24;21.23;30.96
65419;DHT22;52027;50.658;14.004;2023-02-12T17:13:51;21.20;30.93
65419;DHT22;52027;50.658;14.004;2023-02-12T17:16:17;21.23;30.94
65419;DHT22;52027;50.658;14.004;2023-02-12T17:18:42;21.23;30.91
65419;DHT22;52027;50.658;14.004;2023-02-12T17:23:43;21.24;30.90
65419;DHT22;52027;50.658;14.004;2023-02-12T17:26:08;21.24;30.95
65419;DHT22;52027;50.658;14.004;2023-02-12T17:28:34;21.23;30.93
65419;DHT22;52027;50.658;14.004;2023-02-12T17:30:59;21.25;30.93
65419;DHT22;52027;50.658;14.004;2023-02-12T17:33:27;21.25;30.90
65419;DHT22;52027;50.658;14.004;2023-02-12T17:35:52;21.25;30.91
65419;DHT22;52027;50.658;14.004;2023-02-12T17:38:17;21.25;30.91
65419;DHT22;52027;50.658;14.004;2023-02-12T17:40:43;21.25;30.88
65419;DHT22;52027;50.658;14.004;2023-02-12T17:43:08;21.27;30.84
65419;DHT22;52027;50.658;14.004;2023-02-12T17:45:34;21.30;30.87
65419;DHT22;52027;50.658;14.004;2023-02-12T17:47:59;21.28;30.92
65419;DHT22;52027;50.658;14.004;2023-02-12T17:50:25;21.30;30.86
65419;DHT22;52027;50.658;14.004;2023-02-12T17:52:50;21.30;30.87
65419;DHT22;52027;50.658;14.004;2023-02-12T17:55:16;21.32;30.89
65419;DHT22;52027;50.658;14.004;2023-02-12T17:57:42;21.32;30.85
65419;DHT22;52027;50.658;14.004;2023-02-12T18:00:09;21.35;30.81
65419;DHT22;52027;50.658;14.004;2023-02-12T18:02:35;21.34;30.85
65419;DHT22;52027;50.658;14.004;2023-02-12T18:05:01;21.31;30.86
65419;DHT22;52027;50.658;14.004;2023-02-12T18:07:26;21.34;30.85